Time;durP1;ratioP1;P1;durP2;ratioP2;P2;SDS_P1;SDS_P2;PMS_P1;PMS_P2;Temp;Humidity;BMP_temperature;BMP_pressure;BME280_temperature;BME280_humidity;BME280_pressure;Samples;Min_cycle;Max_cycle;Signal;HPM_P1;HPM_P2
2022/10/25 00:00:59;;;;;;;1.17;0.77;;;11.50;99.90;;;;;;4992302;28;20054;-82
2022/10/25 00:03:24;;;;;;;1.75;1.00;;;11.50;99.90;;;;;;4990377;28;20035;-83
2022/10/25 00:05:50;;;;;;;1.02;0.93;;;11.50;99.90;;;;;;4992695;28;20069;-82
2022/10/25 00:08:16;;;;;;;0.77;0.70;;;11.50;99.90;;;;;;4998239;28;20054;-83
2022/10/25 00:10:41;;;;;;;1.45;0.93;;;11.50;99.90;;;;;;5008031;28;20038;-83
2022/10/25 00:13:07;;;;;;;1.88;1.30;;;11.50;99.90;;;;;;5017658;28;20027;-83
2022/10/25 00:15:33;;;;;;;1.95;0.80;;;11.40;99.90;;;;;;5000872;28;20018;-83
2022/10/25 00:17:59;;;;;;;2.83;0.93;;;11.30;99.90;;;;;;5016610;28;20026;-83
2022/10/25 00:20:24;;;;;;;0.93;0.93;;;11.30;99.90;;;;;;5014241;28;20073;-81
2022/10/25 00:22:50;;;;;;;2.78;0.80;;;11.30;99.90;;;;;;5016035;28;20053;-81
2022/10/25 00:25:16;;;;;;;1.10;1.00;;;11.20;99.90;;;;;;5007488;28;20102;-82
2022/10/25 00:27:42;;;;;;;1.38;1.20;;;11.10;99.90;;;;;;5006446;28;20025;-82
2022/10/25 00:30:08;;;;;;;1.88;0.70;;;11.10;99.90;;;;;;4986993;28;20030;-82
2022/10/25 00:32:34;;;;;;;1.50;0.70;;;11.10;99.90;;;;;;4988997;28;20022;-82
2022/10/25 00:35:04;;;;;;;0.90;0.90;;;11.10;99.90;;;;;;5007042;28;20046;-83
2022/10/25 00:37:29;;;;;;;1.73;1.10;;;11.00;99.90;;;;;;5009042;28;20034;-82
2022/10/25 00:39:55;;;;;;;1.30;0.70;;;11.00;99.90;;;;;;5004679;28;20022;-82
2022/10/25 00:42:24;;;;;;;1.23;1.08;;;11.00;99.90;;;;;;5005080;28;20026;-84
2022/10/25 00:45:01;;;;;;;0.88;0.70;;;11.00;99.90;;;;;;5005589;28;20029;-82
2022/10/25 00:47:41;;;;;;;0.95;0.75;;;11.00;99.90;;;;;;5009243;28;20126;-83
2022/10/25 00:50:15;;;;;;;2.38;0.70;;;10.90;99.90;;;;;;5005397;28;20030;-83
2022/10/25 00:52:43;;;;;;;0.70;0.70;;;10.90;99.90;;;;;;5002121;28;20029;-83
2022/10/25 00:55:13;;;;;;;0.60;0.60;;;10.90;99.90;;;;;;4985334;28;20027;-83
2022/10/25 00:57:50;;;;;;;1.08;0.73;;;10.90;99.90;;;;;;5005013;28;20022;-83
2022/10/25 01:00:16;;;;;;;1.77;0.90;;;10.90;99.90;;;;;;5006114;28;20023;-83
2022/10/25 01:02:42;;;;;;;1.17;1.00;;;10.90;99.90;;;;;;4985965;28;20029;-83
2022/10/25 01:05:09;;;;;;;1.13;0.70;;;10.90;99.90;;;;;;4985093;28;20145;-83
2022/10/25 01:07:35;;;;;;;1.05;0.95;;;10.90;99.90;;;;;;4985023;28;20023;-83
2022/10/25 01:10:01;;;;;;;2.15;0.80;;;10.90;99.90;;;;;;4984067;28;20038;-83
2022/10/25 01:12:26;;;;;;;1.45;0.90;;;10.90;99.90;;;;;;4986513;28;20097;-83
2022/10/25 01:14:54;;;;;;;2.55;0.77;;;10.90;99.90;;;;;;5008161;28;20035;-82
2022/10/25 01:18:05;;;;;;;1.25;0.63;;;10.90;99.90;;;;;;5013205;28;20026;-82
2022/10/25 01:21:08;;;;;;;3.40;0.70;;;10.90;99.90;;;;;;5011818;28;20041;-82
2022/10/25 01:23:51;;;;;;;2.70;1.00;;;10.90;99.90;;;;;;4989121;28;20054;-82
2022/10/25 01:26:34;;;;;;;0.77;0.73;;;10.90;99.90;;;;;;4993775;28;20042;-82
2022/10/25 01:29:03;;;;;;;;;;;10.80;99.90;;;;;;4994381;28;20115;-82
2022/10/25 01:31:46;;;;;;;1.45;0.80;;;10.80;99.90;;;;;;4995697;28;19906;-82
2022/10/25 01:34:25;;;;;;;1.08;0.98;;;10.80;99.90;;;;;;4994284;28;20033;-82
2022/10/25 01:37:13;;;;;;;1.05;0.95;;;10.80;99.90;;;;;;4993163;28;20057;-81
2022/10/25 01:39:48;;;;;;;2.40;1.10;;;10.80;99.90;;;;;;4995530;28;20050;-81
2022/10/25 01:42:36;;;;;;;1.83;1.00;;;10.70;99.90;;;;;;4998138;28;20031;-82
2022/10/25 01:45:16;;;;;;;1.13;0.80;;;10.70;99.90;;;;;;4993763;28;20034;-82
2022/10/25 01:48:00;;;;;;;1.15;0.90;;;10.60;99.90;;;;;;4993886;28;20091;-82
2022/10/25 01:50:29;;;;;;;0.80;0.77;;;10.60;99.90;;;;;;5000978;28;20097;-82
2022/10/25 01:52:55;;;;;;;1.17;0.73;;;10.60;99.90;;;;;;5011031;28;20022;-81
2022/10/25 01:55:30;;;;;;;0.40;0.40;;;10.60;99.90;;;;;;5011449;28;20057;-82
2022/10/25 01:58:33;;;;;;;1.58;0.73;;;10.60;99.90;;;;;;4994088;28;20050;-81
2022/10/25 02:01:10;;;;;;;2.47;0.80;;;10.60;99.90;;;;;;5008429;28;20027;-83
2022/10/25 02:03:48;;;;;;;0.80;0.60;;;10.50;99.90;;;;;;4994185;28;20094;-81
2022/10/25 02:06:33;;;;;;;1.50;0.90;;;10.60;99.90;;;;;;4993139;28;20058;-82
2022/10/25 02:09:22;;;;;;;1.67;0.90;;;10.70;99.90;;;;;;4994831;28;20067;-82
2022/10/25 02:11:50;;;;;;;1.45;0.50;;;10.80;99.90;;;;;;4983618;28;20045;-82
2022/10/25 02:14:28;;;;;;;1.02;0.70;;;10.90;99.90;;;;;;5013450;28;20090;-80
2022/10/25 02:17:07;;;;;;;0.95;0.50;;;11.00;99.90;;;;;;5011589;28;20105;-81
2022/10/25 02:19:37;;;;;;;0.60;0.60;;;11.00;99.90;;;;;;5013175;28;20027;-82
2022/10/25 02:22:06;;;;;;;2.03;0.90;;;11.00;99.90;;;;;;5009805;28;20018;-82
2022/10/25 02:24:33;;;;;;;0.95;0.50;;;11.10;99.90;;;;;;5010244;28;20022;-82
2022/10/25 02:27:01;;;;;;;1.30;0.50;;;11.10;99.90;;;;;;5013245;28;20031;-82
2022/10/25 02:29:31;;;;;;;1.25;0.70;;;11.10;99.90;;;;;;4996840;28;20040;-82
2022/10/25 02:31:58;;;;;;;2.47;0.77;;;11.10;99.90;;;;;;5002799;28;20024;-82
2022/10/25 02:34:23;;;;;;;2.38;0.90;;;11.10;99.90;;;;;;5015852;28;20026;-82
2022/10/25 02:36:52;;;;;;;1.38;0.80;;;11.10;99.90;;;;;;4998184;28;20107;-82
2022/10/25 02:39:20;;;;;;;1.35;0.70;;;11.20;99.90;;;;;;5015879;28;20018;-82
2022/10/25 02:41:46;;;;;;;0.68;0.50;;;11.20;99.90;;;;;;5015067;28;20430;-82
2022/10/25 02:44:12;;;;;;;0.60;0.60;;;11.20;99.90;;;;;;4993456;28;20026;-82
2022/10/25 02:46:37;;;;;;;0.68;0.68;;;11.20;99.90;;;;;;4993820;28;20031;-83
2022/10/25 02:49:03;;;;;;;0.70;0.60;;;11.20;99.90;;;;;;5006614;28;20014;-82
2022/10/25 02:51:29;;;;;;;0.65;0.47;;;11.30;99.90;;;;;;5013409;28;20038;-82
2022/10/25 02:53:56;;;;;;;0.75;0.65;;;11.30;99.90;;;;;;5013313;28;20022;-82
2022/10/25 02:56:22;;;;;;;3.20;0.80;;;11.40;99.90;;;;;;5012235;28;20073;-83
2022/10/25 02:58:50;;;;;;;0.82;0.65;;;11.40;99.90;;;;;;5005243;28;20464;-83
2022/10/25 03:01:17;;;;;;;1.05;0.50;;;11.40;99.90;;;;;;4985271;28;20027;-83
2022/10/25 03:03:44;;;;;;;0.85;0.50;;;11.50;99.90;;;;;;4997724;28;20066;-83
2022/10/25 03:06:10;;;;;;;0.85;0.50;;;11.60;99.90;;;;;;4984423;28;20019;-83
2022/10/25 03:08:36;;;;;;;2.53;0.60;;;11.60;99.90;;;;;;4997447;28;20030;-83
2022/10/25 03:11:03;;;;;;;0.35;0.30;;;11.60;99.90;;;;;;5004207;28;20026;-83
2022/10/25 03:13:28;;;;;;;0.40;0.40;;;11.60;99.90;;;;;;5004187;28;20018;-83
2022/10/25 03:15:54;;;;;;;0.60;0.40;;;11.60;99.90;;;;;;5003474;28;20034;-82
2022/10/25 03:18:21;;;;;;;0.60;0.60;;;11.60;99.90;;;;;;5003737;28;20022;-83
2022/10/25 03:20:47;;;;;;;0.93;0.63;;;11.60;99.90;;;;;;4983049;28;20023;-83
2022/10/25 03:23:13;;;;;;;2.05;0.63;;;11.60;99.90;;;;;;4984186;28;20133;-83
2022/10/25 03:25:40;;;;;;;1.95;0.40;;;11.70;99.90;;;;;;4996405;28;20058;-83
2022/10/25 03:28:07;;;;;;;1.15;0.50;;;11.70;99.90;;;;;;4988292;28;20029;-83
2022/10/25 03:30:33;;;;;;;0.77;0.60;;;11.70;99.90;;;;;;4986261;28;20042;-82
2022/10/25 03:32:59;;;;;;;0.65;0.50;;;11.70;99.90;;;;;;5004280;28;20102;-82
2022/10/25 03:35:25;;;;;;;0.93;0.55;;;11.80;99.90;;;;;;5005687;28;20028;-82
2022/10/25 03:37:51;;;;;;;1.48;0.40;;;11.80;99.90;;;;;;5008652;28;20022;-83
2022/10/25 03:40:18;;;;;;;0.45;0.45;;;11.70;99.90;;;;;;5014084;28;20031;-82
2022/10/25 03:42:44;;;;;;;0.52;0.50;;;11.70;99.90;;;;;;5014875;28;20049;-81
2022/10/25 03:45:13;;;;;;;0.30;0.30;;;11.70;99.90;;;;;;5003326;28;20026;-82
2022/10/25 03:47:39;;;;;;;1.00;0.32;;;11.80;99.90;;;;;;4991073;28;20115;-84
2022/10/25 03:50:06;;;;;;;2.28;0.65;;;11.70;99.90;;;;;;4994036;28;20064;-83
2022/10/25 03:52:31;;;;;;;0.98;0.50;;;11.70;99.90;;;;;;5005499;28;20102;-83
2022/10/25 03:54:57;;;;;;;0.50;0.50;;;11.70;99.90;;;;;;4990033;28;20063;-83
2022/10/25 03:57:23;;;;;;;0.60;0.35;;;11.70;99.90;;;;;;4990869;28;20031;-83
2022/10/25 03:59:48;;;;;;;1.85;0.50;;;11.70;99.90;;;;;;5005094;28;20022;-80
2022/10/25 04:02:14;;;;;;;0.40;0.40;;;11.70;99.90;;;;;;5006999;28;20033;-80
2022/10/25 04:04:40;;;;;;;0.60;0.50;;;11.70;99.90;;;;;;5000617;28;20077;-87
2022/10/25 04:07:06;;;;;;;0.57;0.47;;;11.70;99.90;;;;;;4982341;28;20031;-88
2022/10/25 04:09:32;;;;;;;0.52;0.35;;;11.70;99.90;;;;;;5005898;28;20014;-87
2022/10/25 04:11:58;;;;;;;2.38;0.50;;;11.70;99.90;;;;;;4983285;28;20030;-87
2022/10/25 04:14:23;;;;;;;0.40;0.40;;;11.70;99.90;;;;;;4985283;28;20030;-87
2022/10/25 04:16:49;;;;;;;0.82;0.40;;;11.60;99.90;;;;;;4980864;28;20118;-87
2022/10/25 04:19:18;;;;;;;0.60;0.47;;;11.60;99.90;;;;;;4967780;28;20085;-86
2022/10/25 04:21:44;;;;;;;0.43;0.38;;;11.50;99.90;;;;;;4965756;28;20027;-87
2022/10/25 04:24:09;;;;;;;0.98;0.50;;;11.50;99.90;;;;;;4983673;28;20022;-85
2022/10/25 04:26:38;;;;;;;0.50;0.50;;;11.50;99.90;;;;;;4989556;28;20022;-86
2022/10/25 04:29:05;;;;;;;0.65;0.45;;;11.40;99.90;;;;;;5015847;28;20018;-87
2022/10/25 04:31:34;;;;;;;1.23;0.60;;;11.40;99.90;;;;;;4996012;28;20006;-87
2022/10/25 04:34:01;;;;;;;2.47;0.85;;;11.30;99.90;;;;;;4983658;28;20082;-86
2022/10/25 04:36:31;;;;;;;0.55;0.55;;;11.30;99.90;;;;;;4975753;28;20022;-86
2022/10/25 04:38:57;;;;;;;1.05;0.68;;;11.30;99.90;;;;;;4983671;28;20129;-88
2022/10/25 04:41:22;;;;;;;0.45;0.45;;;11.20;99.90;;;;;;4985803;28;20046;-86
2022/10/25 04:43:50;;;;;;;0.75;0.43;;;11.20;99.90;;;;;;4982922;28;20030;-86
2022/10/25 04:46:16;;;;;;;3.20;0.65;;;11.10;99.90;;;;;;5000140;28;20018;-86
2022/10/25 04:48:42;;;;;;;0.50;0.50;;;11.10;99.90;;;;;;5000544;28;20018;-87
2022/10/25 04:51:09;;;;;;;0.85;0.65;;;11.00;99.90;;;;;;5002661;28;20049;-86
2022/10/25 04:53:35;;;;;;;0.88;0.40;;;11.00;99.90;;;;;;4983808;28;20026;-86
2022/10/25 04:56:05;;;;;;;0.28;0.28;;;11.00;99.90;;;;;;5000597;28;20029;-86
2022/10/25 04:58:31;;;;;;;2.03;0.45;;;10.90;99.90;;;;;;4985085;28;20023;-87
2022/10/25 05:01:04;;;;;;;0.68;0.47;;;10.90;99.90;;;;;;5002780;28;20024;-86
2022/10/25 05:03:31;;;;;;;1.05;0.52;;;10.90;99.90;;;;;;4982112;28;20121;-86
2022/10/25 05:06:07;;;;;;;0.63;0.60;;;10.80;99.90;;;;;;5002550;28;20022;-86
2022/10/25 05:08:33;;;;;;;0.50;0.50;;;10.80;99.90;;;;;;4969876;28;20023;-86
2022/10/25 05:10:58;;;;;;;0.82;0.63;;;10.80;99.90;;;;;;4979883;28;20468;-86
2022/10/25 05:13:34;;;;;;;1.35;0.90;;;10.80;99.90;;;;;;4963756;28;20026;-86
2022/10/25 05:16:00;;;;;;;2.17;0.50;;;10.80;99.90;;;;;;4982239;28;20029;-85
2022/10/25 05:18:26;;;;;;;3.35;0.60;;;10.80;99.90;;;;;;4990921;28;20038;-85
2022/10/25 05:21:03;;;;;;;1.05;0.82;;;10.80;99.90;;;;;;4984973;28;20073;-85
2022/10/25 05:23:30;;;;;;;1.90;0.65;;;10.80;99.90;;;;;;4982108;28;20030;-86
2022/10/25 05:26:10;;;;;;;0.70;0.55;;;10.80;99.90;;;;;;4982358;28;20035;-86
2022/10/25 05:28:37;;;;;;;0.52;0.40;;;10.80;99.90;;;;;;4987949;28;20030;-87
2022/10/25 05:31:14;;;;;;;1.08;0.70;;;10.80;99.90;;;;;;4983472;28;20033;-87
2022/10/25 05:33:40;;;;;;;3.22;0.50;;;10.80;99.90;;;;;;5002752;28;20023;-87
2022/10/25 05:36:06;;;;;;;0.65;0.65;;;10.80;99.90;;;;;;5003272;28;20018;-87
2022/10/25 05:38:32;;;;;;;1.67;0.68;;;10.80;99.90;;;;;;4982208;28;20396;-87
2022/10/25 05:40:59;;;;;;;1.50;0.50;;;10.90;99.90;;;;;;5002491;28;20088;-85
2022/10/25 05:43:26;;;;;;;0.55;0.55;;;10.90;99.90;;;;;;4981289;28;20033;-85
2022/10/25 05:45:59;;;;;;;0.60;0.50;;;11.00;99.90;;;;;;4999703;28;20023;-85
2022/10/25 05:48:25;;;;;;;1.45;0.60;;;11.10;99.90;;;;;;4984120;28;20031;-87
2022/10/25 05:50:51;;;;;;;0.88;0.40;;;11.20;99.90;;;;;;4998489;28;20117;-85
2022/10/25 05:53:17;;;;;;;2.55;0.55;;;11.30;99.90;;;;;;4999669;28;20030;-87
2022/10/25 05:55:43;;;;;;;0.57;0.40;;;11.30;99.90;;;;;;4999968;28;20044;-86
2022/10/25 05:58:24;;;;;;;0.40;0.40;;;11.40;99.90;;;;;;4998676;28;20022;-88
2022/10/25 06:00:50;;;;;;;0.63;0.63;;;11.40;99.90;;;;;;4980071;28;20615;-89
2022/10/25 06:03:15;;;;;;;3.85;0.60;;;11.40;99.90;;;;;;4999328;28;20121;-87
2022/10/25 06:05:41;;;;;;;0.43;0.40;;;11.50;99.90;;;;;;4982340;28;20088;-87
2022/10/25 06:08:07;;;;;;;0.63;0.50;;;11.50;99.90;;;;;;4998964;28;20109;-87
2022/10/25 06:10:32;;;;;;;0.70;0.60;;;11.50;99.90;;;;;;4983431;28;20085;-87
2022/10/25 06:12:58;;;;;;;0.55;0.55;;;11.50;99.90;;;;;;5004885;28;20038;-86
2022/10/25 06:15:24;;;;;;;2.08;0.80;;;11.50;99.90;;;;;;5001911;28;20030;-86
2022/10/25 06:17:49;;;;;;;0.60;0.60;;;11.60;99.90;;;;;;4999447;28;20026;-86
2022/10/25 06:20:15;;;;;;;0.85;0.60;;;11.60;99.90;;;;;;5007114;28;20026;-86
2022/10/25 06:22:41;;;;;;;0.85;0.63;;;11.60;99.90;;;;;;5015092;28;20034;-84
2022/10/25 06:25:07;;;;;;;0.90;0.73;;;11.70;99.90;;;;;;5015277;28;20007;-85
2022/10/25 06:27:33;;;;;;;1.05;0.52;;;11.70;99.90;;;;;;5001428;28;20023;-87
2022/10/25 06:29:58;;;;;;;1.67;1.02;;;11.70;99.90;;;;;;5000339;28;20026;-86
2022/10/25 06:32:24;;;;;;;1.25;1.02;;;11.80;99.90;;;;;;4991042;28;20078;-86
2022/10/25 06:34:50;;;;;;;1.02;0.55;;;11.90;99.90;;;;;;4980675;28;20030;-86
2022/10/25 06:37:15;;;;;;;1.15;0.73;;;11.80;99.90;;;;;;4982200;28;20372;-86
2022/10/25 06:39:41;;;;;;;1.33;0.80;;;11.80;99.90;;;;;;4977060;28;20030;-86
2022/10/25 06:42:07;;;;;;;2.15;1.20;;;11.80;99.90;;;;;;4981232;28;20125;-87
2022/10/25 06:44:33;;;;;;;1.85;1.15;;;11.70;99.90;;;;;;4965231;28;20031;-87
2022/10/25 06:46:59;;;;;;;0.93;0.70;;;11.70;99.90;;;;;;4963946;28;20476;-88
2022/10/25 06:49:25;;;;;;;1.42;0.90;;;11.70;99.90;;;;;;4989473;28;20011;-85
2022/10/25 06:51:50;;;;;;;0.98;0.95;;;11.70;99.90;;;;;;4996819;28;20038;-85
2022/10/25 06:54:16;;;;;;;1.17;0.90;;;11.60;99.90;;;;;;4996925;28;20022;-84
2022/10/25 06:56:42;;;;;;;2.72;1.40;;;11.70;99.90;;;;;;4997493;28;20034;-85
2022/10/25 06:59:08;;;;;;;1.70;1.10;;;11.70;99.90;;;;;;5005223;28;20026;-86
2022/10/25 07:01:33;;;;;;;1.10;1.00;;;11.70;99.90;;;;;;5016337;28;20018;-85
2022/10/25 07:04:01;;;;;;;2.28;1.75;;;11.80;99.90;;;;;;5016954;28;20086;-84
2022/10/25 07:06:28;;;;;;;2.33;1.40;;;11.90;99.90;;;;;;5016171;28;20023;-85
2022/10/25 07:08:57;;;;;;;1.92;1.35;;;12.00;99.90;;;;;;5017010;28;20018;-85
2022/10/25 07:11:24;;;;;;;4.85;1.20;;;12.10;99.90;;;;;;5013361;28;20072;-84
2022/10/25 07:13:50;;;;;;;2.38;1.10;;;12.10;99.90;;;;;;4998829;28;20023;-85
2022/10/25 07:16:18;;;;;;;2.22;1.25;;;12.20;99.90;;;;;;5015835;28;20028;-85
2022/10/25 07:18:44;;;;;;;1.73;1.23;;;12.30;99.90;;;;;;4999955;28;20022;-83
2022/10/25 07:21:16;;;;;;;0.95;0.85;;;12.30;99.90;;;;;;5016719;28;20026;-85
2022/10/25 07:23:42;;;;;;;1.58;0.80;;;12.50;99.90;;;;;;4994246;28;20189;-86
2022/10/25 07:26:23;;;;;;;2.05;1.20;;;12.60;99.90;;;;;;4983656;28;20050;-84
2022/10/25 07:28:51;;;;;;;2.47;0.95;;;12.70;99.90;;;;;;5000191;28;20034;-86
2022/10/25 07:31:19;;;;;;;4.78;1.30;;;12.90;99.90;;;;;;4992026;28;20022;-84
2022/10/25 07:33:49;;;;;;;3.63;1.35;;;13.00;99.90;;;;;;4998124;28;20027;-85
2022/10/25 07:36:15;;;;;;;3.28;1.40;;;13.20;99.90;;;;;;4993560;28;20055;-88
2022/10/25 07:38:41;;;;;;;2.10;1.15;;;13.30;99.90;;;;;;4985347;28;20019;-85
2022/10/25 07:41:07;;;;;;;4.03;1.17;;;13.50;99.90;;;;;;4991026;28;20031;-86
2022/10/25 07:43:33;;;;;;;3.22;1.35;;;13.60;99.90;;;;;;5007182;28;20034;-86
2022/10/25 07:45:59;;;;;;;1.88;1.48;;;13.80;99.90;;;;;;5010590;28;20031;-87
2022/10/25 07:48:25;;;;;;;1.10;1.00;;;14.00;99.90;;;;;;5006757;28;20101;-86
2022/10/25 07:50:51;;;;;;;3.15;1.15;;;14.20;99.90;;;;;;4992464;28;20094;-86
2022/10/25 07:53:17;;;;;;;2.95;0.82;;;14.30;99.90;;;;;;5009404;28;20305;-88
2022/10/25 07:55:48;;;;;;;2.45;0.90;;;14.50;99.90;;;;;;5010614;28;20114;-87
2022/10/25 07:58:14;;;;;;;2.25;1.30;;;14.70;99.90;;;;;;5008775;28;20032;-85
2022/10/25 08:00:39;;;;;;;0.95;0.85;;;14.90;99.90;;;;;;5020936;28;20054;-85
2022/10/25 08:03:05;;;;;;;1.77;0.90;;;15.00;99.90;;;;;;5018772;28;20086;-86
2022/10/25 08:05:31;;;;;;;1.65;0.80;;;15.00;99.50;;;;;;4999857;28;20049;-85
2022/10/25 08:07:57;;;;;;;2.50;0.93;;;15.10;99.20;;;;;;5015502;28;20053;-86
2022/10/25 08:10:22;;;;;;;3.65;0.80;;;15.10;98.60;;;;;;5001503;28;20023;-86
2022/10/25 08:12:53;;;;;;;4.40;1.10;;;15.30;98.40;;;;;;5019587;28;20030;-86
2022/10/25 08:15:19;;;;;;;1.60;0.90;;;15.40;98.00;;;;;;4999408;28;20039;-86
2022/10/25 08:17:45;;;;;;;1.90;0.90;;;15.50;97.70;;;;;;4999431;28;20019;-86
2022/10/25 08:20:11;;;;;;;1.63;1.02;;;15.90;97.20;;;;;;4994797;28;20053;-87
2022/10/25 08:22:37;;;;;;;0.70;0.70;;;16.40;96.70;;;;;;4972681;28;20050;-86
2022/10/25 08:25:04;;;;;;;3.60;1.00;;;16.90;95.40;;;;;;5004911;28;20027;-86
2022/10/25 08:27:29;;;;;;;1.10;0.93;;;17.10;93.50;;;;;;5012025;28;20046;-86
2022/10/25 08:29:58;;;;;;;1.80;1.10;;;17.10;92.80;;;;;;5013188;28;20499;-86
2022/10/25 08:32:24;;;;;;;4.88;1.40;;;17.20;92.40;;;;;;4993248;28;20029;-87
2022/10/25 08:34:50;;;;;;;1.65;1.00;;;17.30;91.50;;;;;;4989889;28;20034;-87
2022/10/25 08:37:15;;;;;;;3.00;1.38;;;17.40;90.80;;;;;;4990214;28;20042;-86
2022/10/25 08:39:41;;;;;;;2.03;1.23;;;17.40;90.10;;;;;;4991675;28;20030;-86
2022/10/25 08:42:14;;;;;;;2.67;1.17;;;17.20;90.00;;;;;;4986684;28;20081;-86
2022/10/25 08:45:00;;;;;;;2.83;1.17;;;17.20;90.10;;;;;;4973821;28;20022;-86
2022/10/25 08:47:34;;;;;;;2.40;0.70;;;17.30;89.70;;;;;;5002700;28;20034;-87
2022/10/25 08:50:12;;;;;;;1.45;0.80;;;17.30;89.60;;;;;;5004255;28;20025;-85
2022/10/25 08:52:57;;;;;;;2.58;0.90;;;17.40;88.70;;;;;;4987235;28;20085;-85
2022/10/25 08:55:36;;;;;;;3.70;1.00;;;17.40;87.20;;;;;;4983866;28;20030;-86
2022/10/25 08:58:07;;;;;;;1.73;0.70;;;17.50;87.40;;;;;;5001566;28;20392;-86
2022/10/25 09:00:39;;;;;;;6.60;1.52;;;17.60;87.50;;;;;;5003179;28;20436;-86
2022/10/25 09:03:17;;;;;;;2.88;1.00;;;17.70;85.50;;;;;;4989648;28;20054;-85
2022/10/25 09:06:08;;;;;;;2.97;1.02;;;17.70;85.30;;;;;;4996512;28;20079;-85
2022/10/25 09:08:58;;;;;;;2.50;1.10;;;17.90;85.40;;;;;;4995698;28;20027;-85
2022/10/25 09:12:02;;;;;;;2.50;0.90;;;18.00;84.70;;;;;;4990870;28;20043;-85
2022/10/25 09:14:41;;;;;;;2.92;1.23;;;18.20;84.30;;;;;;4973410;28;20035;-84
2022/10/25 09:17:21;;;;;;;0.80;0.70;;;18.30;82.60;;;;;;5005340;28;20022;-86
2022/10/25 09:19:50;;;;;;;3.67;0.73;;;18.40;82.00;;;;;;5004024;28;20230;-84
2022/10/25 09:22:35;;;;;;;3.08;1.00;;;18.50;80.70;;;;;;4982545;28;20025;-85
2022/10/25 09:25:20;;;;;;;2.95;1.15;;;18.90;79.50;;;;;;5005610;28;20434;-85
2022/10/25 09:28:02;;;;;;;1.52;0.88;;;19.60;77.20;;;;;;4971268;28;20027;-85
2022/10/25 09:30:34;;;;;;;1.95;0.60;;;20.30;74.80;;;;;;5005713;28;20022;-87
2022/10/25 09:33:03;;;;;;;2.67;0.82;;;20.70;71.50;;;;;;5007948;28;20033;-87
2022/10/25 09:35:39;;;;;;;1.65;0.65;;;20.70;70.50;;;;;;5006829;28;20050;-86
2022/10/25 09:38:27;;;;;;;2.85;1.13;;;20.60;70.90;;;;;;5002299;28;20030;-86
2022/10/25 09:41:13;;;;;;;1.55;0.77;;;20.20;71.70;;;;;;5001753;28;20508;-86
2022/10/25 09:43:48;;;;;;;3.35;1.40;;;19.80;72.70;;;;;;4986044;28;20407;-85
2022/10/25 09:46:22;;;;;;;3.60;0.98;;;19.60;73.30;;;;;;4981913;28;20037;-87
2022/10/25 09:49:01;;;;;;;4.00;1.05;;;19.40;73.80;;;;;;4968380;28;20022;-86
2022/10/25 09:51:52;;;;;;;2.15;1.05;;;19.20;73.50;;;;;;4987818;28;20026;-86
2022/10/25 09:54:27;;;;;;;1.85;0.90;;;19.00;74.20;;;;;;4983118;28;20492;-87
2022/10/25 09:56:53;;;;;;;1.30;0.85;;;18.80;74.40;;;;;;4983316;28;20052;-87
2022/10/25 09:59:19;;;;;;;1.00;0.70;;;18.80;74.80;;;;;;4985105;28;20483;-87
2022/10/25 10:01:45;;;;;;;2.55;0.90;;;18.70;74.30;;;;;;5000513;28;20022;-86
2022/10/25 10:04:23;;;;;;;3.92;0.90;;;18.60;74.60;;;;;;4982981;28;20030;-85
2022/10/25 10:06:51;;;;;;;3.55;1.05;;;18.60;75.80;;;;;;4981454;28;20023;-87
2022/10/25 10:09:17;;;;;;;3.15;1.08;;;18.50;74.90;;;;;;4979698;28;20452;-86
2022/10/25 10:11:46;;;;;;;3.67;0.70;;;18.50;75.50;;;;;;4978474;28;20027;-87
2022/10/25 10:14:32;;;;;;;3.22;0.88;;;18.50;74.10;;;;;;4962442;28;20031;-87
2022/10/25 10:16:59;;;;;;;1.75;1.00;;;18.40;73.80;;;;;;4983831;28;20035;-87
2022/10/25 10:19:29;;;;;;;2.63;1.08;;;18.50;74.30;;;;;;4969439;28;20073;-86
2022/10/25 10:21:58;;;;;;;6.20;2.78;;;18.50;74.10;;;;;;4980821;28;20023;-86
2022/10/25 10:24:30;;;;;;;1.00;0.60;;;18.50;72.90;;;;;;4980796;28;20037;-86
2022/10/25 10:27:01;;;;;;;4.70;1.10;;;18.60;73.30;;;;;;4981382;28;20439;-88
2022/10/25 10:29:29;;;;;;;0.77;0.50;;;18.60;71.40;;;;;;4978597;28;20041;-87
2022/10/25 10:32:05;;;;;;;3.47;0.90;;;18.50;71.50;;;;;;4983807;28;20487;-86
2022/10/25 10:34:39;;;;;;;0.88;0.55;;;18.50;71.80;;;;;;5000647;28;20045;-85
2022/10/25 10:37:18;;;;;;;2.60;1.02;;;18.50;72.00;;;;;;5000486;28;20037;-86
2022/10/25 10:39:50;;;;;;;1.85;0.82;;;18.50;71.60;;;;;;4987585;28;20006;-87
2022/10/25 10:42:20;;;;;;;2.65;1.42;;;18.20;72.10;;;;;;4968254;28;20050;-86
2022/10/25 10:45:08;;;;;;;2.67;1.17;;;17.90;72.00;;;;;;5065861;23;20049;-86
2022/10/25 10:47:42;;;;;;;1.42;0.68;;;17.70;73.10;;;;;;5002738;28;20456;-86
2022/10/25 10:50:24;;;;;;;2.22;1.05;;;17.80;73.20;;;;;;4984973;28;20030;-86
2022/10/25 10:52:55;;;;;;;1.10;0.93;;;18.00;73.10;;;;;;4985890;28;20526;-86
2022/10/25 10:55:34;;;;;;;6.05;1.08;;;18.30;72.40;;;;;;5005527;28;20051;-85
2022/10/25 10:58:14;;;;;;;3.00;1.15;;;18.40;72.00;;;;;;5000888;28;20030;-86
2022/10/25 11:01:03;;;;;;;5.35;1.02;;;18.50;72.80;;;;;;4965094;28;20053;-87
2022/10/25 11:03:38;;;;;;;4.10;1.65;;;18.60;72.70;;;;;;4983619;28;20034;-87
2022/10/25 11:06:12;;;;;;;1.80;1.15;;;18.60;72.80;;;;;;4982055;28;20026;-86
2022/10/25 11:08:38;;;;;;;2.53;0.88;;;18.80;71.80;;;;;;4991877;28;20030;-85
2022/10/25 11:11:19;;;;;;;4.10;0.88;;;18.90;71.60;;;;;;4991133;28;20026;-87
2022/10/25 11:14:26;;;;;;;1.85;1.02;;;19.00;69.30;;;;;;5010781;28;20050;-88
2022/10/25 11:17:16;;;;;;;4.78;1.00;;;18.80;70.30;;;;;;4952629;28;20038;-87
2022/10/25 11:19:50;;;;;;;3.28;0.73;;;18.90;70.30;;;;;;5009264;28;20027;-87
2022/10/25 11:22:42;;;;;;;3.90;0.90;;;19.20;69.90;;;;;;5008515;28;20053;-86
2022/10/25 11:25:13;;;;;;;2.80;0.73;;;19.50;69.50;;;;;;5016205;28;20042;-88
2022/10/25 11:27:53;;;;;;;2.55;0.95;;;19.90;69.20;;;;;;5018724;28;20078;-87
2022/10/25 11:30:21;;;;;;;1.13;0.70;;;20.20;68.80;;;;;;5008549;28;20072;-86
2022/10/25 11:33:15;;;;;;;1.88;0.88;;;20.60;67.20;;;;;;5012940;28;20022;-88
2022/10/25 11:35:44;;;;;;;2.58;1.33;;;20.80;64.90;;;;;;5002600;28;20031;-88
2022/10/25 11:38:33;;;;;;;2.53;0.90;;;21.10;65.00;;;;;;4993408;28;20440;-87
2022/10/25 11:41:17;;;;;;;1.83;0.95;;;;;;;;;;5000878;28;20060;-87
2022/10/25 11:43:52;;;;;;;1.00;0.80;;;22.00;60.90;;;;;;4970391;28;20035;-88
2022/10/25 11:46:33;;;;;;;2.42;1.30;;;22.10;61.20;;;;;;4973965;28;20046;-87
2022/10/25 11:49:26;;;;;;;1.67;0.98;;;22.20;61.50;;;;;;4973980;28;20074;-86
2022/10/25 11:52:26;;;;;;;3.28;0.90;;;22.20;59.90;;;;;;4971673;28;20062;-88
2022/10/25 11:55:30;;;;;;;1.85;0.68;;;22.20;60.20;;;;;;4993465;28;20026;-89
2022/10/25 11:58:15;;;;;;;1.35;0.60;;;22.20;60.30;;;;;;4986029;28;20035;-88
2022/10/25 12:00:59;;;;;;;1.73;1.10;;;22.10;59.90;;;;;;5017767;28;20007;-84
2022/10/25 12:03:44;;;;;;;1.52;0.70;;;22.10;59.00;;;;;;5003459;28;20064;-88
2022/10/25 12:06:26;;;;;;;2.55;0.80;;;22.20;58.90;;;;;;5003864;28;20010;-88
2022/10/25 12:14:06;;;;;;;2.03;0.73;;;22.20;58.10;;;;;;5087612;23;20034;-86
2022/10/25 12:16:35;;;;;;;1.70;0.88;;;21.80;57.70;;;;;;4995211;28;20102;-86
2022/10/25 12:19:11;;;;;;;1.77;0.93;;;21.40;59.10;;;;;;4992294;28;20033;-85
2022/10/25 12:21:48;;;;;;;0.65;0.50;;;21.30;59.20;;;;;;4991657;28;20033;-85
2022/10/25 12:24:43;;;;;;;2.83;0.80;;;21.30;59.40;;;;;;5009591;28;20090;-87
2022/10/25 12:27:10;;;;;;;2.85;0.60;;;20.80;60.20;;;;;;4989628;28;20440;-86
2022/10/25 12:29:44;;;;;;;3.53;0.82;;;20.40;62.20;;;;;;5006973;28;20039;-86
2022/10/25 12:32:22;;;;;;;1.40;0.90;;;20.30;62.50;;;;;;5013154;28;20030;-87
2022/10/25 12:34:51;;;;;;;2.60;0.95;;;20.10;62.20;;;;;;5013747;28;20049;-86
2022/10/25 12:37:40;;;;;;;2.63;1.33;;;19.90;63.10;;;;;;4993783;28;20352;-86
2022/10/25 12:40:14;;;;;;;1.45;0.88;;;19.70;63.70;;;;;;4997004;28;20070;-86
2022/10/25 12:42:54;;;;;;;1.38;0.70;;;19.80;64.10;;;;;;4993608;28;20039;-87
2022/10/25 12:45:45;;;;;;;1.20;0.80;;;19.80;63.00;;;;;;4994457;28;20085;-86
2022/10/25 12:48:33;;;;;;;1.00;0.60;;;19.70;63.40;;;;;;4995191;28;20025;-88
2022/10/25 12:51:08;;;;;;;1.10;0.60;;;19.70;63.80;;;;;;4993303;28;20026;-87
2022/10/25 12:54:11;;;;;;;1.17;0.65;;;19.90;63.30;;;;;;4993217;28;20458;-85
2022/10/25 12:57:01;;;;;;;0.80;0.60;;;20.10;63.00;;;;;;4993888;28;20057;-86
2022/10/25 13:00:05;;;;;;;1.85;0.82;;;20.20;62.80;;;;;;4990637;28;20026;-86
2022/10/25 13:02:46;;;;;;;3.17;1.33;;;20.40;62.50;;;;;;4989355;28;20097;-88
2022/10/25 13:05:49;;;;;;;0.88;0.60;;;20.60;61.60;;;;;;4987293;28;20055;-86
2022/10/25 13:08:20;;;;;;;3.25;0.60;;;20.70;61.20;;;;;;4988944;28;20031;-87
2022/10/25 13:11:07;;;;;;;2.15;0.95;;;20.70;60.70;;;;;;4991678;28;20384;-86
2022/10/25 13:13:40;;;;;;;2.08;0.70;;;20.90;59.50;;;;;;4988470;28;20101;-86
2022/10/25 13:16:09;;;;;;;2.75;0.90;;;21.00;59.30;;;;;;5006438;28;20110;-87
2022/10/25 13:18:43;;;;;;;1.25;0.80;;;21.20;59.30;;;;;;4992010;28;20030;-84